sensor_id;sensor_type;location;lat;lon;timestamp;P1;durP1;ratioP1;P2;durP2;ratioP2
17024;SDS011;8629;42.496;25.620;2023-08-31T00:01:31;7.80;;;6.70;;
17024;SDS011;8629;42.496;25.620;2023-08-31T00:03:58;10.83;;;5.80;;
17024;SDS011;8629;42.496;25.620;2023-08-31T00:06:27;7.50;;;6.73;;
17024;SDS011;8629;42.496;25.620;2023-08-31T00:08:54;10.03;;;6.13;;
17024;SDS011;8629;42.496;25.620;2023-08-31T00:11:20;6.53;;;5.93;;
17024;SDS011;8629;42.496;25.620;2023-08-31T00:13:47;7.03;;;6.33;;
17024;SDS011;8629;42.496;25.620;2023-08-31T00:16:14;6.83;;;6.23;;
17024;SDS011;8629;42.496;25.620;2023-08-31T00:18:41;8.13;;;7.43;;
17024;SDS011;8629;42.496;25.620;2023-08-31T00:21:10;6.50;;;5.63;;
17024;SDS011;8629;42.496;25.620;2023-08-31T00:23:40;7.40;;;6.80;;
17024;SDS011;8629;42.496;25.620;2023-08-31T00:26:07;9.13;;;5.97;;
17024;SDS011;8629;42.496;25.620;2023-08-31T00:28:35;6.70;;;6.10;;
17024;SDS011;8629;42.496;25.620;2023-08-31T00:31:01;8.80;;;7.10;;
17024;SDS011;8629;42.496;25.620;2023-08-31T00:33:29;6.80;;;6.10;;
17024;SDS011;8629;42.496;25.620;2023-08-31T00:35:58;8.53;;;6.20;;
17024;SDS011;8629;42.496;25.620;2023-08-31T00:38:26;7.37;;;6.67;;
17024;SDS011;8629;42.496;25.620;2023-08-31T00:40:55;7.87;;;5.87;;
17024;SDS011;8629;42.496;25.620;2023-08-31T00:43:22;8.80;;;6.40;;
17024;SDS011;8629;42.496;25.620;2023-08-31T00:45:50;6.93;;;6.23;;
17024;SDS011;8629;42.496;25.620;2023-08-31T00:48:19;8.03;;;7.10;;
17024;SDS011;8629;42.496;25.620;2023-08-31T00:50:46;8.87;;;6.63;;
17024;SDS011;8629;42.496;25.620;2023-08-31T00:53:13;6.60;;;6.07;;
17024;SDS011;8629;42.496;25.620;2023-08-31T00:55:41;6.80;;;6.03;;
17024;SDS011;8629;42.496;25.620;2023-08-31T00:58:09;8.20;;;7.27;;
17024;SDS011;8629;42.496;25.620;2023-08-31T01:00:40;7.03;;;6.33;;
17024;SDS011;8629;42.496;25.620;2023-08-31T01:03:12;9.10;;;6.97;;
17024;SDS011;8629;42.496;25.620;2023-08-31T01:05:41;7.50;;;6.80;;
17024;SDS011;8629;42.496;25.620;2023-08-31T01:08:19;7.80;;;7.03;;
17024;SDS011;8629;42.496;25.620;2023-08-31T01:10:53;7.60;;;6.77;;
17024;SDS011;8629;42.496;25.620;2023-08-31T01:13:26;7.30;;;6.57;;
17024;SDS011;8629;42.496;25.620;2023-08-31T01:16:00;8.73;;;6.60;;
17024;SDS011;8629;42.496;25.620;2023-08-31T01:18:31;9.60;;;7.20;;
17024;SDS011;8629;42.496;25.620;2023-08-31T01:21:02;7.23;;;6.63;;
17024;SDS011;8629;42.496;25.620;2023-08-31T01:23:49;7.50;;;6.77;;
17024;SDS011;8629;42.496;25.620;2023-08-31T01:26:17;7.93;;;7.13;;
17024;SDS011;8629;42.496;25.620;2023-08-31T01:28:44;6.63;;;6.13;;
17024;SDS011;8629;42.496;25.620;2023-08-31T01:31:11;7.63;;;6.30;;
17024;SDS011;8629;42.496;25.620;2023-08-31T01:33:38;7.60;;;6.70;;
17024;SDS011;8629;42.496;25.620;2023-08-31T01:36:17;7.60;;;6.30;;
17024;SDS011;8629;42.496;25.620;2023-08-31T01:38:48;7.23;;;6.63;;
17024;SDS011;8629;42.496;25.620;2023-08-31T01:41:19;6.40;;;5.60;;
17024;SDS011;8629;42.496;25.620;2023-08-31T01:43:47;7.43;;;6.43;;
17024;SDS011;8629;42.496;25.620;2023-08-31T01:46:15;8.20;;;6.00;;
17024;SDS011;8629;42.496;25.620;2023-08-31T01:48:42;7.47;;;6.77;;
17024;SDS011;8629;42.496;25.620;2023-08-31T01:51:09;10.10;;;6.93;;
17024;SDS011;8629;42.496;25.620;2023-08-31T01:53:36;6.97;;;6.00;;
17024;SDS011;8629;42.496;25.620;2023-08-31T01:56:05;7.80;;;6.33;;
17024;SDS011;8629;42.496;25.620;2023-08-31T01:58:31;8.60;;;6.37;;
17024;SDS011;8629;42.496;25.620;2023-08-31T02:00:58;7.37;;;6.63;;
17024;SDS011;8629;42.496;25.620;2023-08-31T02:03:25;7.87;;;7.03;;
17024;SDS011;8629;42.496;25.620;2023-08-31T02:05:52;8.97;;;8.07;;
17024;SDS011;8629;42.496;25.620;2023-08-31T02:08:19;7.43;;;6.80;;
17024;SDS011;8629;42.496;25.620;2023-08-31T02:10:45;8.63;;;7.30;;
17024;SDS011;8629;42.496;25.620;2023-08-31T02:13:15;11.40;;;7.83;;
17024;SDS011;8629;42.496;25.620;2023-08-31T02:15:42;7.40;;;6.73;;
17024;SDS011;8629;42.496;25.620;2023-08-31T02:18:08;9.07;;;7.17;;
17024;SDS011;8629;42.496;25.620;2023-08-31T02:20:35;10.07;;;7.87;;
17024;SDS011;8629;42.496;25.620;2023-08-31T02:23:02;8.67;;;7.77;;
17024;SDS011;8629;42.496;25.620;2023-08-31T02:25:29;8.13;;;7.37;;
17024;SDS011;8629;42.496;25.620;2023-08-31T02:27:56;7.73;;;6.97;;
17024;SDS011;8629;42.496;25.620;2023-08-31T02:30:24;7.97;;;7.20;;
17024;SDS011;8629;42.496;25.620;2023-08-31T02:32:51;11.07;;;8.20;;
17024;SDS011;8629;42.496;25.620;2023-08-31T02:35:17;7.20;;;6.50;;
17024;SDS011;8629;42.496;25.620;2023-08-31T02:37:44;7.33;;;6.70;;
17024;SDS011;8629;42.496;25.620;2023-08-31T02:40:11;7.60;;;6.97;;
17024;SDS011;8629;42.496;25.620;2023-08-31T02:42:38;8.63;;;6.80;;
17024;SDS011;8629;42.496;25.620;2023-08-31T02:45:05;7.83;;;7.03;;
17024;SDS011;8629;42.496;25.620;2023-08-31T02:47:34;10.80;;;7.67;;
17024;SDS011;8629;42.496;25.620;2023-08-31T02:50:01;8.03;;;7.07;;
17024;SDS011;8629;42.496;25.620;2023-08-31T02:52:28;10.33;;;7.03;;
17024;SDS011;8629;42.496;25.620;2023-08-31T02:54:54;7.10;;;6.50;;
17024;SDS011;8629;42.496;25.620;2023-08-31T02:57:21;24.47;;;13.90;;
17024;SDS011;8629;42.496;25.620;2023-08-31T02:59:51;7.63;;;6.90;;
17024;SDS011;8629;42.496;25.620;2023-08-31T03:02:18;8.60;;;6.93;;
17024;SDS011;8629;42.496;25.620;2023-08-31T03:04:46;16.63;;;6.90;;
17024;SDS011;8629;42.496;25.620;2023-08-31T03:07:13;11.30;;;6.73;;
17024;SDS011;8629;42.496;25.620;2023-08-31T03:09:40;8.33;;;7.53;;
17024;SDS011;8629;42.496;25.620;2023-08-31T03:12:07;17.07;;;6.33;;
17024;SDS011;8629;42.496;25.620;2023-08-31T03:14:34;15.60;;;6.87;;
17024;SDS011;8629;42.496;25.620;2023-08-31T03:17:01;9.93;;;7.87;;
17024;SDS011;8629;42.496;25.620;2023-08-31T03:19:28;9.03;;;7.00;;
17024;SDS011;8629;42.496;25.620;2023-08-31T03:21:56;8.10;;;6.60;;
17024;SDS011;8629;42.496;25.620;2023-08-31T03:24:23;12.60;;;6.13;;
17024;SDS011;8629;42.496;25.620;2023-08-31T03:26:50;17.63;;;7.60;;
17024;SDS011;8629;42.496;25.620;2023-08-31T03:29:16;9.77;;;6.57;;
17024;SDS011;8629;42.496;25.620;2023-08-31T03:31:43;13.07;;;6.67;;
17024;SDS011;8629;42.496;25.620;2023-08-31T03:34:10;9.10;;;7.07;;
17024;SDS011;8629;42.496;25.620;2023-08-31T03:36:37;7.43;;;6.20;;
17024;SDS011;8629;42.496;25.620;2023-08-31T03:39:05;8.40;;;7.13;;
17024;SDS011;8629;42.496;25.620;2023-08-31T03:41:32;8.67;;;6.97;;
17024;SDS011;8629;42.496;25.620;2023-08-31T03:44:00;9.93;;;6.87;;
17024;SDS011;8629;42.496;25.620;2023-08-31T03:46:27;10.13;;;6.60;;
17024;SDS011;8629;42.496;25.620;2023-08-31T03:48:54;12.57;;;7.17;;
17024;SDS011;8629;42.496;25.620;2023-08-31T03:51:21;7.27;;;6.67;;
17024;SDS011;8629;42.496;25.620;2023-08-31T03:53:47;9.43;;;6.37;;
17024;SDS011;8629;42.496;25.620;2023-08-31T03:56:16;7.80;;;7.00;;
17024;SDS011;8629;42.496;25.620;2023-08-31T03:58:42;12.30;;;6.83;;
17024;SDS011;8629;42.496;25.620;2023-08-31T04:01:09;8.67;;;7.00;;
17024;SDS011;8629;42.496;25.620;2023-08-31T04:03:36;10.83;;;6.80;;
17024;SDS011;8629;42.496;25.620;2023-08-31T04:06:03;9.93;;;7.20;;
17024;SDS011;8629;42.496;25.620;2023-08-31T04:08:30;8.27;;;6.37;;
17024;SDS011;8629;42.496;25.620;2023-08-31T04:10:57;11.63;;;6.23;;
17024;SDS011;8629;42.496;25.620;2023-08-31T04:13:26;7.73;;;7.00;;
17024;SDS011;8629;42.496;25.620;2023-08-31T04:15:53;14.70;;;7.63;;
17024;SDS011;8629;42.496;25.620;2023-08-31T04:18:20;13.03;;;7.23;;
17024;SDS011;8629;42.496;25.620;2023-08-31T04:20:48;15.30;;;7.33;;
17024;SDS011;8629;42.496;25.620;2023-08-31T04:23:16;8.37;;;7.00;;
17024;SDS011;8629;42.496;25.620;2023-08-31T04:25:43;8.40;;;6.73;;
17024;SDS011;8629;42.496;25.620;2023-08-31T04:28:10;14.47;;;7.43;;
17024;SDS011;8629;42.496;25.620;2023-08-31T04:30:38;16.40;;;6.83;;
17024;SDS011;8629;42.496;25.620;2023-08-31T04:33:05;10.63;;;7.67;;
17024;SDS011;8629;42.496;25.620;2023-08-31T04:35:32;12.73;;;7.67;;
17024;SDS011;8629;42.496;25.620;2023-08-31T04:37:59;11.47;;;7.27;;
17024;SDS011;8629;42.496;25.620;2023-08-31T04:40:27;12.90;;;6.87;;
17024;SDS011;8629;42.496;25.620;2023-08-31T04:42:53;13.87;;;7.33;;
17024;SDS011;8629;42.496;25.620;2023-08-31T04:45:20;17.90;;;7.33;;
17024;SDS011;8629;42.496;25.620;2023-08-31T04:47:48;9.63;;;6.77;;
17024;SDS011;8629;42.496;25.620;2023-08-31T04:50:16;10.47;;;7.43;;
17024;SDS011;8629;42.496;25.620;2023-08-31T04:52:43;7.77;;;7.03;;
17024;SDS011;8629;42.496;25.620;2023-08-31T04:55:12;9.63;;;6.90;;
17024;SDS011;8629;42.496;25.620;2023-08-31T04:57:39;11.70;;;7.87;;
17024;SDS011;8629;42.496;25.620;2023-08-31T05:00:06;12.83;;;6.70;;
17024;SDS011;8629;42.496;25.620;2023-08-31T05:02:37;11.07;;;8.57;;
17024;SDS011;8629;42.496;25.620;2023-08-31T05:05:06;18.70;;;7.00;;
17024;SDS011;8629;42.496;25.620;2023-08-31T05:07:34;11.07;;;7.17;;
17024;SDS011;8629;42.496;25.620;2023-08-31T05:10:00;7.93;;;6.90;;
17024;SDS011;8629;42.496;25.620;2023-08-31T05:12:28;11.27;;;8.40;;
17024;SDS011;8629;42.496;25.620;2023-08-31T05:14:55;9.50;;;6.90;;
17024;SDS011;8629;42.496;25.620;2023-08-31T05:17:22;10.10;;;8.20;;
17024;SDS011;8629;42.496;25.620;2023-08-31T05:19:48;10.80;;;7.23;;
17024;SDS011;8629;42.496;25.620;2023-08-31T05:22:17;11.27;;;7.40;;
17024;SDS011;8629;42.496;25.620;2023-08-31T05:24:43;10.13;;;6.93;;
17024;SDS011;8629;42.496;25.620;2023-08-31T05:27:10;10.37;;;8.60;;
17024;SDS011;8629;42.496;25.620;2023-08-31T05:29:37;8.30;;;7.43;;
17024;SDS011;8629;42.496;25.620;2023-08-31T05:32:04;9.10;;;6.97;;
17024;SDS011;8629;42.496;25.620;2023-08-31T05:34:32;12.03;;;7.23;;
17024;SDS011;8629;42.496;25.620;2023-08-31T05:37:03;10.70;;;6.83;;
17024;SDS011;8629;42.496;25.620;2023-08-31T05:39:32;13.53;;;8.00;;
17024;SDS011;8629;42.496;25.620;2023-08-31T05:41:59;14.17;;;8.83;;
17024;SDS011;8629;42.496;25.620;2023-08-31T05:44:26;10.70;;;7.27;;
17024;SDS011;8629;42.496;25.620;2023-08-31T05:46:52;8.87;;;8.00;;
17024;SDS011;8629;42.496;25.620;2023-08-31T05:49:19;9.47;;;7.87;;
17024;SDS011;8629;42.496;25.620;2023-08-31T05:51:46;14.73;;;8.30;;
17024;SDS011;8629;42.496;25.620;2023-08-31T05:54:12;8.80;;;6.83;;
17024;SDS011;8629;42.496;25.620;2023-08-31T05:56:41;12.63;;;7.57;;
17024;SDS011;8629;42.496;25.620;2023-08-31T05:59:07;17.03;;;7.33;;
17024;SDS011;8629;42.496;25.620;2023-08-31T06:01:34;7.73;;;6.97;;
17024;SDS011;8629;42.496;25.620;2023-08-31T06:04:01;16.30;;;8.23;;
17024;SDS011;8629;42.496;25.620;2023-08-31T06:06:28;8.20;;;6.73;;
17024;SDS011;8629;42.496;25.620;2023-08-31T06:08:57;8.80;;;6.27;;
17024;SDS011;8629;42.496;25.620;2023-08-31T06:11:24;7.77;;;5.87;;
17024;SDS011;8629;42.496;25.620;2023-08-31T06:13:52;7.70;;;5.97;;
17024;SDS011;8629;42.496;25.620;2023-08-31T06:16:19;9.77;;;6.10;;
17024;SDS011;8629;42.496;25.620;2023-08-31T06:18:46;9.00;;;6.40;;
17024;SDS011;8629;42.496;25.620;2023-08-31T06:21:12;9.10;;;6.23;;
17024;SDS011;8629;42.496;25.620;2023-08-31T06:23:39;7.03;;;6.20;;
17024;SDS011;8629;42.496;25.620;2023-08-31T06:26:06;8.37;;;6.13;;
17024;SDS011;8629;42.496;25.620;2023-08-31T06:28:32;8.93;;;6.63;;
17024;SDS011;8629;42.496;25.620;2023-08-31T06:31:01;6.70;;;5.63;;
17024;SDS011;8629;42.496;25.620;2023-08-31T06:33:29;9.50;;;5.97;;
17024;SDS011;8629;42.496;25.620;2023-08-31T06:35:56;8.20;;;6.33;;
17024;SDS011;8629;42.496;25.620;2023-08-31T06:38:22;8.30;;;6.57;;
17024;SDS011;8629;42.496;25.620;2023-08-31T06:40:49;7.37;;;6.67;;
17024;SDS011;8629;42.496;25.620;2023-08-31T06:43:16;11.17;;;5.97;;
17024;SDS011;8629;42.496;25.620;2023-08-31T06:45:42;8.53;;;5.93;;
17024;SDS011;8629;42.496;25.620;2023-08-31T06:48:11;9.80;;;6.00;;
17024;SDS011;8629;42.496;25.620;2023-08-31T06:50:37;9.40;;;6.87;;
17024;SDS011;8629;42.496;25.620;2023-08-31T06:53:04;10.47;;;6.20;;
17024;SDS011;8629;42.496;25.620;2023-08-31T06:55:31;7.00;;;6.30;;
17024;SDS011;8629;42.496;25.620;2023-08-31T06:57:58;6.00;;;5.40;;
17024;SDS011;8629;42.496;25.620;2023-08-31T07:00:25;6.17;;;5.57;;
17024;SDS011;8629;42.496;25.620;2023-08-31T07:02:52;7.50;;;5.53;;
17024;SDS011;8629;42.496;25.620;2023-08-31T07:05:24;5.67;;;5.17;;
17024;SDS011;8629;42.496;25.620;2023-08-31T07:07:53;7.43;;;5.30;;
17024;SDS011;8629;42.496;25.620;2023-08-31T07:10:20;6.57;;;5.90;;
17024;SDS011;8629;42.496;25.620;2023-08-31T07:12:47;6.87;;;5.53;;
17024;SDS011;8629;42.496;25.620;2023-08-31T07:15:14;5.80;;;5.30;;
17024;SDS011;8629;42.496;25.620;2023-08-31T07:17:41;6.93;;;5.15;;
17024;SDS011;8629;42.496;25.620;2023-08-31T07:20:08;7.33;;;5.80;;
17024;SDS011;8629;42.496;25.620;2023-08-31T07:22:37;7.37;;;5.63;;
17024;SDS011;8629;42.496;25.620;2023-08-31T07:25:06;6.25;;;5.65;;
17024;SDS011;8629;42.496;25.620;2023-08-31T07:27:34;6.10;;;5.13;;
17024;SDS011;8629;42.496;25.620;2023-08-31T07:30:01;5.18;;;4.78;;
17024;SDS011;8629;42.496;25.620;2023-08-31T07:32:29;6.93;;;4.28;;
17024;SDS011;8629;42.496;25.620;2023-08-31T07:34:58;7.18;;;4.82;;
17024;SDS011;8629;42.496;25.620;2023-08-31T07:37:24;4.85;;;4.22;;
17024;SDS011;8629;42.496;25.620;2023-08-31T07:39:53;7.18;;;5.38;;
17024;SDS011;8629;42.496;25.620;2023-08-31T07:42:19;4.50;;;4.15;;
17024;SDS011;8629;42.496;25.620;2023-08-31T07:44:46;4.60;;;4.22;;
17024;SDS011;8629;42.496;25.620;2023-08-31T07:47:13;6.55;;;5.75;;
17024;SDS011;8629;42.496;25.620;2023-08-31T07:49:39;7.65;;;4.95;;
17024;SDS011;8629;42.496;25.620;2023-08-31T07:52:07;5.95;;;4.63;;
17024;SDS011;8629;42.496;25.620;2023-08-31T07:54:34;6.15;;;5.47;;
17024;SDS011;8629;42.496;25.620;2023-08-31T07:57:02;8.00;;;4.88;;
17024;SDS011;8629;42.496;25.620;2023-08-31T07:59:29;6.93;;;4.97;;
17024;SDS011;8629;42.496;25.620;2023-08-31T08:01:57;6.88;;;5.38;;
17024;SDS011;8629;42.496;25.620;2023-08-31T08:04:24;10.40;;;5.38;;
17024;SDS011;8629;42.496;25.620;2023-08-31T08:06:52;5.03;;;4.38;;
17024;SDS011;8629;42.496;25.620;2023-08-31T08:09:19;5.50;;;4.47;;
17024;SDS011;8629;42.496;25.620;2023-08-31T08:11:46;5.20;;;4.80;;
17024;SDS011;8629;42.496;25.620;2023-08-31T08:14:14;6.00;;;5.35;;
17024;SDS011;8629;42.496;25.620;2023-08-31T08:16:41;6.10;;;5.47;;
17024;SDS011;8629;42.496;25.620;2023-08-31T08:19:08;5.10;;;4.70;;
17024;SDS011;8629;42.496;25.620;2023-08-31T08:21:35;4.95;;;4.45;;
17024;SDS011;8629;42.496;25.620;2023-08-31T08:24:01;8.13;;;5.20;;
17024;SDS011;8629;42.496;25.620;2023-08-31T08:26:28;5.10;;;4.45;;
17024;SDS011;8629;42.496;25.620;2023-08-31T08:28:55;6.25;;;5.63;;
17024;SDS011;8629;42.496;25.620;2023-08-31T08:31:23;5.45;;;4.47;;
17024;SDS011;8629;42.496;25.620;2023-08-31T08:33:50;5.97;;;5.40;;
17024;SDS011;8629;42.496;25.620;2023-08-31T08:36:17;7.40;;;4.93;;
17024;SDS011;8629;42.496;25.620;2023-08-31T08:38:44;10.38;;;5.50;;
17024;SDS011;8629;42.496;25.620;2023-08-31T08:41:10;10.02;;;5.72;;
17024;SDS011;8629;42.496;25.620;2023-08-31T08:43:37;6.93;;;5.18;;
17024;SDS011;8629;42.496;25.620;2023-08-31T08:46:09;7.78;;;4.95;;
17024;SDS011;8629;42.496;25.620;2023-08-31T08:48:37;6.05;;;5.32;;
17024;SDS011;8629;42.496;25.620;2023-08-31T08:51:04;5.32;;;4.82;;
17024;SDS011;8629;42.496;25.620;2023-08-31T08:53:32;6.72;;;5.50;;
17024;SDS011;8629;42.496;25.620;2023-08-31T08:55:59;9.00;;;5.82;;
17024;SDS011;8629;42.496;25.620;2023-08-31T08:58:27;7.95;;;4.78;;
17024;SDS011;8629;42.496;25.620;2023-08-31T09:00:54;6.20;;;4.95;;
17024;SDS011;8629;42.496;25.620;2023-08-31T09:03:21;5.80;;;5.20;;
17024;SDS011;8629;42.496;25.620;2023-08-31T09:05:50;5.78;;;5.10;;
17024;SDS011;8629;42.496;25.620;2023-08-31T09:08:17;5.35;;;4.55;;
17024;SDS011;8629;42.496;25.620;2023-08-31T09:10:52;5.90;;;5.18;;
17024;SDS011;8629;42.496;25.620;2023-08-31T09:13:19;5.88;;;5.38;;
17024;SDS011;8629;42.496;25.620;2023-08-31T09:15:46;7.57;;;5.05;;
17024;SDS011;8629;42.496;25.620;2023-08-31T09:18:14;8.13;;;6.13;;
17024;SDS011;8629;42.496;25.620;2023-08-31T09:20:45;7.32;;;5.03;;
17024;SDS011;8629;42.496;25.620;2023-08-31T09:23:14;5.20;;;4.70;;
17024;SDS011;8629;42.496;25.620;2023-08-31T09:25:42;7.50;;;5.60;;
17024;SDS011;8629;42.496;25.620;2023-08-31T09:28:12;6.30;;;5.00;;
17024;SDS011;8629;42.496;25.620;2023-08-31T09:30:39;5.93;;;5.38;;
17024;SDS011;8629;42.496;25.620;2023-08-31T09:33:06;9.00;;;5.03;;
17024;SDS011;8629;42.496;25.620;2023-08-31T09:35:35;7.28;;;5.30;;
17024;SDS011;8629;42.496;25.620;2023-08-31T09:38:07;11.82;;;6.38;;
17024;SDS011;8629;42.496;25.620;2023-08-31T09:40:35;7.90;;;5.13;;
17024;SDS011;8629;42.496;25.620;2023-08-31T09:43:02;6.88;;;5.18;;
17024;SDS011;8629;42.496;25.620;2023-08-31T09:45:30;8.15;;;5.25;;
17024;SDS011;8629;42.496;25.620;2023-08-31T09:47:58;7.07;;;5.40;;
17024;SDS011;8629;42.496;25.620;2023-08-31T09:50:25;6.35;;;5.05;;
17024;SDS011;8629;42.496;25.620;2023-08-31T09:52:53;6.55;;;5.95;;
17024;SDS011;8629;42.496;25.620;2023-08-31T09:55:22;6.45;;;5.28;;
17024;SDS011;8629;42.496;25.620;2023-08-31T09:57:52;7.25;;;5.05;;
17024;SDS011;8629;42.496;25.620;2023-08-31T10:00:19;6.05;;;5.22;;
17024;SDS011;8629;42.496;25.620;2023-08-31T10:02:46;6.60;;;4.57;;
17024;SDS011;8629;42.496;25.620;2023-08-31T10:05:13;5.38;;;4.85;;
17024;SDS011;8629;42.496;25.620;2023-08-31T10:07:40;6.70;;;4.65;;
17024;SDS011;8629;42.496;25.620;2023-08-31T10:10:08;6.65;;;5.38;;
17024;SDS011;8629;42.496;25.620;2023-08-31T10:12:35;7.35;;;4.80;;
17024;SDS011;8629;42.496;25.620;2023-08-31T10:15:03;10.50;;;4.93;;
17024;SDS011;8629;42.496;25.620;2023-08-31T10:17:31;7.25;;;4.65;;
17024;SDS011;8629;42.496;25.620;2023-08-31T10:19:58;7.55;;;4.40;;
17024;SDS011;8629;42.496;25.620;2023-08-31T10:22:25;6.53;;;5.25;;
17024;SDS011;8629;42.496;25.620;2023-08-31T10:24:58;5.05;;;4.60;;
17024;SDS011;8629;42.496;25.620;2023-08-31T10:27:26;6.65;;;5.15;;
17024;SDS011;8629;42.496;25.620;2023-08-31T10:29:53;9.57;;;5.68;;
17024;SDS011;8629;42.496;25.620;2023-08-31T10:32:21;6.30;;;5.22;;
17024;SDS011;8629;42.496;25.620;2023-08-31T10:37:33;8.85;;;5.78;;
17024;SDS011;8629;42.496;25.620;2023-08-31T10:40:07;9.10;;;5.03;;
17024;SDS011;8629;42.496;25.620;2023-08-31T10:42:43;5.93;;;5.30;;
17024;SDS011;8629;42.496;25.620;2023-08-31T10:45:10;9.03;;;5.90;;
17024;SDS011;8629;42.496;25.620;2023-08-31T10:47:39;7.13;;;5.87;;
17024;SDS011;8629;42.496;25.620;2023-08-31T10:50:15;7.00;;;6.10;;
17024;SDS011;8629;42.496;25.620;2023-08-31T10:52:43;6.63;;;5.97;;
17024;SDS011;8629;42.496;25.620;2023-08-31T10:55:11;7.00;;;6.27;;
17024;SDS011;8629;42.496;25.620;2023-08-31T10:57:37;7.77;;;6.27;;
17024;SDS011;8629;42.496;25.620;2023-08-31T11:00:06;9.43;;;6.43;;
17024;SDS011;8629;42.496;25.620;2023-08-31T11:02:34;7.67;;;5.83;;
17024;SDS011;8629;42.496;25.620;2023-08-31T11:05:05;17.15;;;6.28;;
17024;SDS011;8629;42.496;25.620;2023-08-31T11:07:33;7.03;;;5.83;;
17024;SDS011;8629;42.496;25.620;2023-08-31T11:12:49;6.30;;;5.70;;
17024;SDS011;8629;42.496;25.620;2023-08-31T11:15:17;8.40;;;5.85;;
17024;SDS011;8629;42.496;25.620;2023-08-31T11:17:45;9.95;;;6.05;;
17024;SDS011;8629;42.496;25.620;2023-08-31T11:20:14;6.93;;;6.03;;
17024;SDS011;8629;42.496;25.620;2023-08-31T11:22:42;7.63;;;6.47;;
17024;SDS011;8629;42.496;25.620;2023-08-31T11:25:11;8.23;;;6.03;;
17024;SDS011;8629;42.496;25.620;2023-08-31T11:27:39;6.28;;;4.93;;
17024;SDS011;8629;42.496;25.620;2023-08-31T11:30:11;7.28;;;6.03;;
17024;SDS011;8629;42.496;25.620;2023-08-31T11:32:43;7.93;;;5.28;;
17024;SDS011;8629;42.496;25.620;2023-08-31T11:35:11;9.15;;;5.57;;
17024;SDS011;8629;42.496;25.620;2023-08-31T11:37:40;6.35;;;5.60;;
17024;SDS011;8629;42.496;25.620;2023-08-31T11:40:08;9.13;;;6.18;;
17024;SDS011;8629;42.496;25.620;2023-08-31T11:42:37;6.32;;;5.78;;
17024;SDS011;8629;42.496;25.620;2023-08-31T11:45:05;6.40;;;5.70;;
17024;SDS011;8629;42.496;25.620;2023-08-31T11:47:32;6.03;;;5.43;;
17024;SDS011;8629;42.496;25.620;2023-08-31T11:50:00;6.78;;;5.00;;
17024;SDS011;8629;42.496;25.620;2023-08-31T11:52:30;5.85;;;5.03;;
17024;SDS011;8629;42.496;25.620;2023-08-31T11:54:59;5.63;;;5.10;;
17024;SDS011;8629;42.496;25.620;2023-08-31T11:57:26;5.10;;;4.70;;
17024;SDS011;8629;42.496;25.620;2023-08-31T11:59:54;6.25;;;4.85;;
17024;SDS011;8629;42.496;25.620;2023-08-31T12:02:21;5.85;;;5.35;;
17024;SDS011;8629;42.496;25.620;2023-08-31T12:04:48;6.15;;;5.25;;
17024;SDS011;8629;42.496;25.620;2023-08-31T12:07:16;6.10;;;5.10;;
17024;SDS011;8629;42.496;25.620;2023-08-31T12:09:43;8.18;;;5.40;;
17024;SDS011;8629;42.496;25.620;2023-08-31T12:12:12;5.70;;;5.20;;
17024;SDS011;8629;42.496;25.620;2023-08-31T12:14:41;5.65;;;5.15;;
17024;SDS011;8629;42.496;25.620;2023-08-31T12:17:09;6.20;;;5.60;;
17024;SDS011;8629;42.496;25.620;2023-08-31T12:19:36;6.60;;;5.88;;
17024;SDS011;8629;42.496;25.620;2023-08-31T12:22:03;6.65;;;6.05;;
17024;SDS011;8629;42.496;25.620;2023-08-31T12:24:36;7.88;;;5.72;;
17024;SDS011;8629;42.496;25.620;2023-08-31T12:27:03;7.22;;;5.95;;
17024;SDS011;8629;42.496;25.620;2023-08-31T12:29:34;7.25;;;5.10;;
17024;SDS011;8629;42.496;25.620;2023-08-31T12:32:01;6.38;;;5.78;;
17024;SDS011;8629;42.496;25.620;2023-08-31T12:34:28;6.68;;;5.75;;
17024;SDS011;8629;42.496;25.620;2023-08-31T12:36:59;7.18;;;6.13;;
17024;SDS011;8629;42.496;25.620;2023-08-31T12:39:27;5.88;;;5.20;;
17024;SDS011;8629;42.496;25.620;2023-08-31T12:41:54;7.45;;;5.43;;
17024;SDS011;8629;42.496;25.620;2023-08-31T12:44:21;7.35;;;5.60;;
17024;SDS011;8629;42.496;25.620;2023-08-31T12:46:49;6.43;;;5.80;;
17024;SDS011;8629;42.496;25.620;2023-08-31T12:49:16;5.82;;;4.97;;
17024;SDS011;8629;42.496;25.620;2023-08-31T12:51:45;6.32;;;5.70;;
17024;SDS011;8629;42.496;25.620;2023-08-31T12:54:12;5.10;;;4.55;;
17024;SDS011;8629;42.496;25.620;2023-08-31T12:56:40;7.88;;;4.88;;
17024;SDS011;8629;42.496;25.620;2023-08-31T12:59:07;5.43;;;4.95;;
17024;SDS011;8629;42.496;25.620;2023-08-31T13:01:34;7.30;;;4.78;;
17024;SDS011;8629;42.496;25.620;2023-08-31T13:04:04;6.70;;;4.82;;
17024;SDS011;8629;42.496;25.620;2023-08-31T13:06:31;5.07;;;4.68;;
17024;SDS011;8629;42.496;25.620;2023-08-31T13:08:58;5.35;;;4.95;;
17024;SDS011;8629;42.496;25.620;2023-08-31T13:11:24;6.85;;;6.35;;
17024;SDS011;8629;42.496;25.620;2023-08-31T13:13:51;6.93;;;5.50;;
17024;SDS011;8629;42.496;25.620;2023-08-31T13:16:18;6.53;;;4.72;;
17024;SDS011;8629;42.496;25.620;2023-08-31T13:18:47;5.43;;;4.90;;
17024;SDS011;8629;42.496;25.620;2023-08-31T13:21:15;5.32;;;4.88;;
17024;SDS011;8629;42.496;25.620;2023-08-31T13:23:42;5.03;;;4.63;;
17024;SDS011;8629;42.496;25.620;2023-08-31T13:26:09;6.55;;;5.95;;
17024;SDS011;8629;42.496;25.620;2023-08-31T13:28:36;5.22;;;4.72;;
17024;SDS011;8629;42.496;25.620;2023-08-31T13:31:03;5.18;;;4.78;;
17024;SDS011;8629;42.496;25.620;2023-08-31T13:33:29;6.75;;;4.97;;
17024;SDS011;8629;42.496;25.620;2023-08-31T13:35:57;6.60;;;5.20;;
17024;SDS011;8629;42.496;25.620;2023-08-31T13:38:26;5.68;;;5.18;;
17024;SDS011;8629;42.496;25.620;2023-08-31T13:40:53;6.33;;;5.73;;
17024;SDS011;8629;42.496;25.620;2023-08-31T13:43:21;7.33;;;5.20;;
17024;SDS011;8629;42.496;25.620;2023-08-31T13:45:48;9.80;;;6.13;;
17024;SDS011;8629;42.496;25.620;2023-08-31T13:48:15;6.67;;;5.33;;
17024;SDS011;8629;42.496;25.620;2023-08-31T13:50:42;6.07;;;4.43;;
17024;SDS011;8629;42.496;25.620;2023-08-31T13:53:09;5.37;;;4.90;;
17024;SDS011;8629;42.496;25.620;2023-08-31T13:55:37;7.27;;;5.00;;
17024;SDS011;8629;42.496;25.620;2023-08-31T13:58:04;8.53;;;4.50;;
17024;SDS011;8629;42.496;25.620;2023-08-31T14:00:32;5.13;;;4.70;;
17024;SDS011;8629;42.496;25.620;2023-08-31T14:02:59;8.73;;;4.63;;
17024;SDS011;8629;42.496;25.620;2023-08-31T14:05:28;6.27;;;5.03;;
17024;SDS011;8629;42.496;25.620;2023-08-31T14:07:56;4.37;;;3.97;;
17024;SDS011;8629;42.496;25.620;2023-08-31T14:10:23;6.03;;;4.30;;
17024;SDS011;8629;42.496;25.620;2023-08-31T14:12:51;5.10;;;4.60;;
17024;SDS011;8629;42.496;25.620;2023-08-31T14:15:18;4.67;;;4.27;;
17024;SDS011;8629;42.496;25.620;2023-08-31T14:17:45;6.30;;;4.90;;
17024;SDS011;8629;42.496;25.620;2023-08-31T14:20:13;5.27;;;4.77;;
17024;SDS011;8629;42.496;25.620;2023-08-31T14:22:40;5.90;;;4.73;;
17024;SDS011;8629;42.496;25.620;2023-08-31T14:25:08;8.10;;;4.17;;
17024;SDS011;8629;42.496;25.620;2023-08-31T14:27:36;5.57;;;4.30;;
17024;SDS011;8629;42.496;25.620;2023-08-31T14:30:05;5.93;;;4.67;;
17024;SDS011;8629;42.496;25.620;2023-08-31T14:32:32;6.53;;;4.10;;
17024;SDS011;8629;42.496;25.620;2023-08-31T14:34:59;7.00;;;4.80;;
17024;SDS011;8629;42.496;25.620;2023-08-31T14:37:26;9.70;;;4.50;;
17024;SDS011;8629;42.496;25.620;2023-08-31T14:39:52;4.60;;;4.20;;
17024;SDS011;8629;42.496;25.620;2023-08-31T14:42:19;6.35;;;4.00;;
17024;SDS011;8629;42.496;25.620;2023-08-31T14:44:46;5.30;;;4.37;;
17024;SDS011;8629;42.496;25.620;2023-08-31T14:47:15;4.50;;;4.20;;
17024;SDS011;8629;42.496;25.620;2023-08-31T14:49:42;5.82;;;4.38;;
17024;SDS011;8629;42.496;25.620;2023-08-31T14:52:09;7.40;;;4.38;;
17024;SDS011;8629;42.496;25.620;2023-08-31T14:54:36;4.00;;;3.60;;